Chickamauga

Latest Operating Information
WARNING! Water release schedules can change without notice due to unanticipated weather changes or power system requirements. Large amounts of water could be discharged at any time. Use caution! Obey all posted safety regulations and precautions!  Vital safety information.

Generation Releases

Caption
Day Time Period Generators
6/24/2018 1am - midnight 2 or more
6/25/2018 midnight - midnight 2 or more
6/26/2018 midnight - 1am 2 or more

Observed Data

Caption
Day Time (Eastern) Reservoir Elevation (behind dam)* Tailwater Elevation (below dam)* Average Hourly Discharge*
6/22/2018 7 PM 681.99 638.43 47,371
6/22/2018 8 PM 682.26 636.58 27,005
6/22/2018 9 PM 682.37 636.33 26,806
6/22/2018 10 PM 682.32 636.17 26,636
6/22/2018 11 PM 682.17 635.50 20,519
6/22/2018 midnight 682.17 634.50 13,831
6/23/2018 1 AM 682.16 634.27 13,730
6/23/2018 2 AM 682.16 634.03 13,721
6/23/2018 3 AM 682.21 633.84 13,599
6/23/2018 4 AM 682.25 633.73 13,711
6/23/2018 5 AM 682.24 633.52 13,609
6/23/2018 6 AM 682.24 633.27 13,511
6/23/2018 7 AM 682.25 633.19 13,468
6/23/2018 8 AM 682.24 633.05 13,557
6/23/2018 9 AM 682.25 632.89 13,523
6/23/2018 10 AM 682.24 632.79 13,630
6/23/2018 11 AM 682.19 633.91 20,513
6/23/2018 noon 681.91 635.51 28,149
6/23/2018 1 PM 681.91 637.42 47,646
6/23/2018 2 PM 681.80 637.65 47,764
6/23/2018 3 PM 681.90 637.86 47,546
6/23/2018 4 PM 681.87 638.00 47,553
6/23/2018 5 PM 681.87 638.13 47,262
6/23/2018 6 PM 681.80 638.16 47,170
6/23/2018 7 PM 681.75 638.22 46,894
6/23/2018 8 PM 681.69 638.31 46,967
6/23/2018 9 PM 681.85 636.48 27,266
6/23/2018 10 PM 681.95 635.58 20,543
6/23/2018 11 PM 682.04 634.47 13,696
6/23/2018 midnight 681.96 634.28 13,631
6/24/2018 1 AM 681.94 634.23 13,604
6/24/2018 2 AM 681.90 634.10 13,582
6/24/2018 3 AM 681.84 633.84 13,512
6/24/2018 4 AM 681.86 633.76 13,544
6/24/2018 5 AM 681.93 633.57 13,590
6/24/2018 6 AM 681.98 633.49 13,531
6/24/2018 7 AM 681.98 633.41 13,655
6/24/2018 8 AM 681.99 633.28 13,605
6/24/2018 9 AM 681.95 633.19 13,558
6/24/2018 10 AM 681.93 633.07 13,705
6/24/2018 11 AM 681.93 633.02 13,616
6/24/2018 noon 681.89 633.99 20,366
6/24/2018 1 PM 681.94 634.83 26,702
6/24/2018 2 PM 682.00 634.93 26,918
6/24/2018 3 PM 682.05 634.98 26,785
6/24/2018 4 PM 682.06 635.05 26,816
6/24/2018 5 PM 681.89 635.81 28,155
6/24/2018 6 PM 682.11 637.59 47,254

Predicted Data

Caption
Day Average Inflow* Midnight Elevation* Average Outflow*
6/24/2018 24,445 681.91 23,105
6/25/2018 20,135 681.95 20,052
6/26/2018 19,392 681.99 18,500

*Elevations are in feet above sea level. Discharges are in cubic feet per second and are reported at the end of the hour.

Notes:

Water release schedules are updated periodically throughout the day. Next-day release schedules are usually available by 6 p.m. of the current day.

Observed water levels also are updated periodically throughout the day. Predicted water levels are updated at least once a day, by 1 p.m. Eastern time, and may be updated more frequently when conditions warrant.

Reservoir Information

Get the most up-to-date information for the reservoirs, including today’s lake levels, predicted elevations, planned releases, reservoir operating guides, ecological health ratings, fish survey results, recreation facilities and more.

 

 

Lake Info App

Want your lake info to go? Download the TVA Lake Info app, an easy-to-use resource for operating on and around reservoirs and dams in the TVA region. Available for iPhone and Android devices.